createdAt,value
2019-04-29T20:40:42.990Z,497.40
2019-04-29T20:43:29.570Z,488.57
2019-04-29T20:46:18.023Z,493.40
2019-04-29T20:59:48.831Z,185.93
2019-04-29T21:02:35.308Z,299.12
2019-04-29T21:05:24.465Z,414.78
2019-04-29T21:08:16.380Z,474.40
2019-04-29T21:11:05.738Z,424.50
2019-04-29T21:13:56.206Z,182.97
2019-04-29T21:16:47.358Z,299.58
2019-04-29T21:19:53.044Z,447.45
2019-04-29T21:23:12.096Z,437.30
2019-04-29T21:26:08.822Z,381.20
2019-04-29T21:29:10.577Z,465.35
2019-04-29T21:32:05.917Z,583.25
2019-04-29T21:35:10.091Z,505.55
2019-04-29T21:38:08.672Z,489.07
2019-04-29T21:41:09.129Z,632.17
2019-04-29T21:43:57.525Z,647.20
2019-04-29T21:46:50.531Z,671.22
2019-04-29T21:53:56.502Z,704.23
2019-04-29T21:56:47.833Z,461.32
2019-04-29T21:59:35.768Z,491.40
2019-04-29T22:02:26.047Z,306.47
2019-04-29T22:05:18.078Z,346.80
2019-04-29T22:08:04.349Z,272.40
2019-04-29T22:10:58.369Z,360.32
2019-04-29T22:13:46.264Z,388.98
2019-04-29T22:16:35.661Z,421.25
2019-04-29T22:19:26.772Z,400.27
2019-04-29T22:22:14.257Z,387.93
2019-04-29T22:25:05.853Z,360.73
2019-04-29T22:27:52.610Z,350.00
2019-04-29T22:30:40.956Z,331.15
2019-04-29T22:33:29.784Z,327.50
2019-04-29T22:36:18.878Z,299.73
2019-04-29T22:39:07.562Z,296.05
2019-04-29T22:41:58.029Z,292.90
2019-04-29T22:44:46.685Z,308.98
2019-04-29T22:47:35.214Z,265.23
2019-04-29T22:50:23.694Z,264.32
2019-04-29T22:53:12.341Z,250.82
2019-04-29T22:56:00.687Z,248.70
2019-04-29T22:58:49.342Z,250.07
2019-04-29T23:04:26.927Z,255.03
2019-04-29T23:07:17.613Z,204.07
2019-04-29T23:10:06.874Z,198.95
2019-04-29T23:12:57.462Z,195.20
2019-04-29T23:15:45.530Z,184.67
2019-04-29T23:18:42.264Z,193.10
2019-04-29T23:21:45.011Z,177.97
2019-04-29T23:24:51.439Z,187.90
2019-04-29T23:27:40.798Z,178.10
2019-04-29T23:30:29.267Z,163.20
2019-04-29T23:33:22.858Z,152.85
2019-04-29T23:36:09.561Z,186.85
2019-04-29T23:38:57.635Z,198.62
2019-04-29T23:41:45.803Z,329.68
2019-04-29T23:44:37.858Z,335.90
2019-04-29T23:47:25.664Z,284.77
2019-04-29T23:50:14.110Z,263.52
2019-04-29T23:53:05.630Z,252.10
2019-04-29T23:55:55.575Z,234.35
2019-04-29T23:58:48.879Z,226.62
